createdAt,value
2023-02-17T00:01:42.560Z,33.42
2023-02-17T00:04:11.477Z,29.67
2023-02-17T00:06:40.661Z,32.65
2023-02-17T00:09:09.605Z,33.72
2023-02-17T00:11:38.552Z,30.13
2023-02-17T00:14:07.780Z,33.08
2023-02-17T00:16:36.709Z,32.72
2023-02-17T00:19:25.257Z,30.50
2023-02-17T00:21:57.017Z,34.47
2023-02-17T00:24:28.054Z,33.80
2023-02-17T00:26:57.527Z,39.97
2023-02-17T00:29:27.329Z,29.98
2023-02-17T00:31:57.018Z,28.65
2023-02-17T00:34:26.396Z,33.20
2023-02-17T00:36:55.548Z,32.03
2023-02-17T00:39:24.565Z,28.30
2023-02-17T00:41:53.499Z,32.47
2023-02-17T00:44:25.064Z,37.15
2023-02-17T00:46:54.272Z,32.63
2023-02-17T00:49:28.385Z,33.00
2023-02-17T00:52:00.561Z,35.20
2023-02-17T00:54:30.621Z,33.92
2023-02-17T00:56:59.530Z,40.33
2023-02-17T00:59:28.469Z,36.38
2023-02-17T01:01:57.423Z,33.95
2023-02-17T01:04:26.468Z,31.75
2023-02-17T01:06:55.500Z,30.05
2023-02-17T01:09:24.480Z,36.28
2023-02-17T01:11:53.406Z,36.88
2023-02-17T01:14:22.363Z,35.25
2023-02-17T01:16:51.678Z,36.33
2023-02-17T01:19:21.691Z,32.30
2023-02-17T01:21:51.007Z,37.30
2023-02-17T01:24:19.975Z,37.85
2023-02-17T01:26:48.893Z,35.78
2023-02-17T01:29:18.922Z,35.92
2023-02-17T01:31:48.022Z,36.35
2023-02-17T01:34:16.972Z,32.72
2023-02-17T01:36:45.873Z,28.65
2023-02-17T01:39:18.467Z,36.55
2023-02-17T01:41:47.355Z,28.52
2023-02-17T01:44:21.773Z,27.60
2023-02-17T01:46:53.120Z,28.75
2023-02-17T01:49:33.540Z,27.75
2023-02-17T01:52:18.447Z,31.23
2023-02-17T01:55:03.774Z,25.17
2023-02-17T01:57:35.977Z,28.52
2023-02-17T02:00:07.107Z,24.92
2023-02-17T02:02:36.557Z,23.17
2023-02-17T02:05:06.025Z,25.52
2023-02-17T02:07:40.087Z,30.77
2023-02-17T02:10:10.556Z,23.45
2023-02-17T02:12:42.244Z,20.42
2023-02-17T02:15:21.335Z,21.92
2023-02-17T02:18:02.428Z,21.60
2023-02-17T02:20:43.450Z,22.48
2023-02-17T02:23:18.437Z,24.35
2023-02-17T02:26:05.984Z,28.08
2023-02-17T02:29:22.496Z,21.90
2023-02-17T02:32:24.913Z,26.90
2023-02-17T02:35:09.477Z,22.70
2023-02-17T02:37:47.260Z,26.00
2023-02-17T02:40:21.254Z,27.00
2023-02-17T02:45:20.467Z,24.10
2023-02-17T02:47:54.747Z,27.02
2023-02-17T02:50:51.114Z,24.05
2023-02-17T02:53:44.538Z,25.10
2023-02-17T02:56:29.444Z,26.30
2023-02-17T02:59:09.760Z,25.23
2023-02-17T03:01:54.479Z,23.77
2023-02-17T03:04:27.668Z,24.35
2023-02-17T03:07:03.135Z,26.60
2023-02-17T03:09:32.310Z,24.23
2023-02-17T03:12:01.286Z,26.80
2023-02-17T03:14:36.994Z,25.15
2023-02-17T03:17:06.067Z,27.92
2023-02-17T03:19:35.120Z,21.63
2023-02-17T03:22:16.558Z,24.17
2023-02-17T03:24:45.649Z,27.67
2023-02-17T03:27:14.650Z,27.17
2023-02-17T03:29:43.567Z,21.88
2023-02-17T03:32:12.803Z,24.27
2023-02-17T03:34:41.766Z,28.15
2023-02-17T03:37:10.820Z,27.30
2023-02-17T03:39:39.728Z,25.23
2023-02-17T03:42:08.917Z,26.35
2023-02-17T03:44:37.855Z,23.20
2023-02-17T03:47:06.834Z,29.20
2023-02-17T03:49:35.935Z,27.48
2023-02-17T03:52:04.973Z,21.25
2023-02-17T03:54:33.992Z,24.15
2023-02-17T03:57:02.941Z,23.05
2023-02-17T03:59:32.314Z,22.60
2023-02-17T04:02:01.258Z,23.05
2023-02-17T04:04:30.231Z,23.77
2023-02-17T04:06:59.115Z,20.00
2023-02-17T04:09:28.060Z,24.60
2023-02-17T04:11:56.965Z,24.63
2023-02-17T04:14:25.894Z,24.73
2023-02-17T04:16:54.762Z,22.67
2023-02-17T04:19:23.632Z,23.23
2023-02-17T04:21:52.564Z,22.15
2023-02-17T04:24:22.226Z,22.30
2023-02-17T04:26:51.178Z,22.40
2023-02-17T04:29:20.069Z,21.00
2023-02-17T04:31:49.030Z,22.35
2023-02-17T04:34:18.010Z,20.50
2023-02-17T04:36:46.910Z,21.30
2023-02-17T04:39:16.167Z,27.70
2023-02-17T04:41:45.073Z,19.25
2023-02-17T04:44:16.634Z,19.15
2023-02-17T04:46:45.517Z,20.25
2023-02-17T04:49:14.512Z,22.83
2023-02-17T04:51:43.401Z,26.13
2023-02-17T04:54:12.288Z,23.27
2023-02-17T04:56:41.307Z,20.30
2023-02-17T04:59:10.421Z,21.55
2023-02-17T05:01:39.358Z,21.48
2023-02-17T05:04:08.268Z,19.95
2023-02-17T05:06:37.209Z,17.88
2023-02-17T05:09:06.306Z,23.42
2023-02-17T05:11:35.335Z,18.27
2023-02-17T05:14:04.286Z,18.33
2023-02-17T05:16:33.197Z,18.52
2023-02-17T05:19:02.096Z,26.63
2023-02-17T05:21:31.012Z,20.75
2023-02-17T05:23:59.973Z,18.83
2023-02-17T05:26:29.120Z,17.05
2023-02-17T05:28:58.184Z,21.02
2023-02-17T05:31:27.143Z,20.50
2023-02-17T05:33:56.826Z,26.08
2023-02-17T05:36:25.773Z,18.27
2023-02-17T05:38:54.797Z,21.02
2023-02-17T05:41:24.364Z,21.42
2023-02-17T05:43:53.291Z,16.85
2023-02-17T05:46:24.026Z,20.10
2023-02-17T05:48:52.990Z,17.42
2023-02-17T05:51:21.955Z,21.00
2023-02-17T05:53:50.889Z,18.83
2023-02-17T05:56:19.812Z,25.38
2023-02-17T05:58:48.720Z,23.52
2023-02-17T06:01:17.817Z,22.20
2023-02-17T06:03:46.846Z,22.50
2023-02-17T06:06:15.812Z,21.98
2023-02-17T06:08:44.680Z,19.73
2023-02-17T06:11:13.623Z,28.27
2023-02-17T06:13:42.496Z,17.60
2023-02-17T06:16:11.607Z,17.70
2023-02-17T06:18:40.570Z,19.25
2023-02-17T06:21:09.495Z,24.60
2023-02-17T06:23:38.603Z,18.77
2023-02-17T06:26:07.831Z,23.67
2023-02-17T06:28:36.964Z,19.02
2023-02-17T06:31:06.168Z,21.25
2023-02-17T06:33:35.125Z,19.90
2023-02-17T06:36:04.245Z,19.58
2023-02-17T06:38:33.273Z,24.52
2023-02-17T06:41:02.213Z,21.27
2023-02-17T06:43:31.109Z,17.02
2023-02-17T06:46:00.255Z,20.58
2023-02-17T06:48:29.462Z,18.98
2023-02-17T06:50:58.345Z,23.00
2023-02-17T06:53:27.802Z,22.55
2023-02-17T06:55:57.177Z,19.67
2023-02-17T06:58:26.087Z,19.17
2023-02-17T07:00:54.974Z,19.58
2023-02-17T07:03:23.909Z,21.10
2023-02-17T07:05:53.090Z,20.52
2023-02-17T07:08:21.981Z,23.70
2023-02-17T07:10:50.866Z,18.08
2023-02-17T07:13:19.747Z,30.17
2023-02-17T07:15:48.780Z,19.65
2023-02-17T07:18:17.671Z,18.95
2023-02-17T07:20:46.688Z,21.02
2023-02-17T07:23:15.566Z,20.67
2023-02-17T07:25:44.482Z,21.52
2023-02-17T07:28:13.474Z,25.35
2023-02-17T07:30:44.367Z,22.50
2023-02-17T07:33:14.732Z,23.73
2023-02-17T07:35:46.783Z,18.20
2023-02-17T07:38:16.041Z,18.75
2023-02-17T07:40:44.886Z,17.85
2023-02-17T07:43:13.785Z,23.67
2023-02-17T07:45:42.985Z,23.35
2023-02-17T07:48:12.250Z,17.02
2023-02-17T07:50:41.191Z,19.15
2023-02-17T07:53:10.076Z,17.73
2023-02-17T07:55:39.266Z,20.67
2023-02-17T07:58:08.176Z,16.98
2023-02-17T08:00:37.072Z,21.48
2023-02-17T08:03:06.003Z,20.40
2023-02-17T08:05:34.927Z,22.27
2023-02-17T08:08:21.961Z,18.80
2023-02-17T08:11:09.127Z,19.73
2023-02-17T08:13:38.250Z,20.98
2023-02-17T08:16:07.640Z,23.30
2023-02-17T08:18:36.921Z,23.92
2023-02-17T08:21:06.579Z,21.20
2023-02-17T08:23:36.398Z,18.30
2023-02-17T08:26:06.305Z,19.98
2023-02-17T08:28:35.401Z,20.60
2023-02-17T08:31:04.606Z,23.63
2023-02-17T08:33:33.598Z,20.58
2023-02-17T08:36:08.701Z,21.27
2023-02-17T08:38:37.689Z,25.75
2023-02-17T08:41:15.480Z,23.35
2023-02-17T08:43:45.227Z,24.45
2023-02-17T08:46:15.456Z,20.27
2023-02-17T08:48:45.363Z,20.13
2023-02-17T08:51:16.373Z,25.42
2023-02-17T08:53:46.986Z,22.98
2023-02-17T08:56:15.926Z,19.80
2023-02-17T08:58:45.028Z,19.08
2023-02-17T09:01:14.172Z,21.88
2023-02-17T09:03:43.249Z,20.27
2023-02-17T09:06:12.207Z,17.15
2023-02-17T09:08:42.131Z,25.15
2023-02-17T09:11:11.618Z,18.08
2023-02-17T09:13:40.548Z,16.77
2023-02-17T09:16:09.721Z,17.67
2023-02-17T09:18:46.402Z,18.20
2023-02-17T09:21:15.879Z,14.65
2023-02-17T09:23:45.327Z,17.33
2023-02-17T09:26:16.195Z,16.77
2023-02-17T09:28:47.102Z,21.60
2023-02-17T09:31:24.667Z,19.13
2023-02-17T09:33:58.828Z,23.70
2023-02-17T09:36:31.075Z,16.25
2023-02-17T09:39:01.609Z,18.40
2023-02-17T09:41:51.009Z,38.22
2023-02-17T09:44:24.297Z,16.08
2023-02-17T09:47:06.716Z,17.27
2023-02-17T09:49:52.702Z,20.00
2023-02-17T09:52:34.880Z,15.13
2023-02-17T09:55:12.718Z,15.57
2023-02-17T09:57:57.990Z,16.35
2023-02-17T10:00:41.594Z,19.63
2023-02-17T10:03:34.742Z,16.45
2023-02-17T10:06:22.206Z,16.85
2023-02-17T10:09:00.375Z,19.55
2023-02-17T10:11:36.366Z,21.38
2023-02-17T10:14:28.028Z,20.25
2023-02-17T10:17:19.201Z,19.10
2023-02-17T10:20:04.805Z,19.73
2023-02-17T10:22:34.762Z,19.85
2023-02-17T10:25:14.782Z,20.42
2023-02-17T10:28:20.626Z,18.52
2023-02-17T10:30:57.508Z,20.42
2023-02-17T10:34:01.710Z,21.80
2023-02-17T10:36:58.166Z,19.30
2023-02-17T10:39:27.019Z,19.20
2023-02-17T10:41:57.465Z,21.67
2023-02-17T10:44:27.339Z,18.27
2023-02-17T10:46:56.753Z,24.77
2023-02-17T10:49:28.688Z,19.55
2023-02-17T10:52:11.888Z,25.17
2023-02-17T10:54:48.080Z,24.80
2023-02-17T10:57:20.838Z,20.92
2023-02-17T10:59:52.759Z,19.35
2023-02-17T11:02:43.422Z,19.92
2023-02-17T11:05:27.985Z,20.67
2023-02-17T11:07:59.213Z,17.52
2023-02-17T11:10:37.787Z,20.10
2023-02-17T11:13:41.733Z,21.48
2023-02-17T11:16:43.139Z,24.77
2023-02-17T11:19:28.788Z,19.55
2023-02-17T11:22:00.459Z,32.33
2023-02-17T11:24:31.620Z,22.90
2023-02-17T11:27:03.986Z,24.65
2023-02-17T11:29:34.354Z,22.92
2023-02-17T11:32:08.308Z,28.38
2023-02-17T11:34:40.446Z,24.25
2023-02-17T11:37:15.348Z,18.58
2023-02-17T11:39:49.743Z,26.10
2023-02-17T11:42:28.480Z,22.63
2023-02-17T11:45:00.135Z,26.98
2023-02-17T11:48:14.709Z,23.88
2023-02-17T11:51:10.384Z,22.00
2023-02-17T11:53:39.277Z,21.35
2023-02-17T11:56:18.416Z,27.35
2023-02-17T11:58:59.523Z,25.90
2023-02-17T12:01:53.162Z,23.67
2023-02-17T12:04:39.742Z,25.25
2023-02-17T12:07:31.604Z,25.05
2023-02-17T12:10:04.095Z,27.58
2023-02-17T12:12:52.746Z,30.20
2023-02-17T12:15:36.207Z,29.15
2023-02-17T12:18:28.245Z,26.53
2023-02-17T12:21:09.299Z,26.88
2023-02-17T12:24:14.868Z,26.23
2023-02-17T12:27:36.209Z,30.55
2023-02-17T12:30:32.579Z,30.75
2023-02-17T12:33:10.011Z,28.10
2023-02-17T12:35:45.012Z,32.72
2023-02-17T12:38:18.510Z,32.42
2023-02-17T12:40:55.329Z,36.72
2023-02-17T12:43:39.284Z,34.33
2023-02-17T12:46:15.653Z,36.33
2023-02-17T12:49:06.523Z,34.33
2023-02-17T12:51:44.207Z,36.47
2023-02-17T12:54:44.727Z,38.40
2023-02-17T12:57:24.765Z,28.15
2023-02-17T12:59:55.562Z,34.03
2023-02-17T13:02:28.455Z,35.50
2023-02-17T13:05:03.068Z,35.35
2023-02-17T13:07:53.400Z,36.60
2023-02-17T13:10:32.095Z,41.05
2023-02-17T13:13:08.056Z,38.30
2023-02-17T13:15:40.773Z,31.77
2023-02-17T13:18:15.557Z,43.60
2023-02-17T13:21:03.157Z,41.83
2023-02-17T13:23:38.730Z,52.72
2023-02-17T13:26:25.167Z,63.85
2023-02-17T13:28:56.460Z,52.53
2023-02-17T13:31:28.197Z,57.42
2023-02-17T13:33:59.957Z,64.90
2023-02-17T13:36:34.677Z,58.80
2023-02-17T13:39:04.113Z,46.35
2023-02-17T13:41:50.206Z,49.67
2023-02-17T13:44:29.905Z,49.47
2023-02-17T13:47:20.999Z,41.80
2023-02-17T13:49:58.353Z,70.80
2023-02-17T13:52:32.498Z,52.58
2023-02-17T13:55:06.630Z,39.53
2023-02-17T13:57:37.851Z,57.53
2023-02-17T14:00:26.966Z,49.70
2023-02-17T14:03:06.154Z,49.90
2023-02-17T14:05:35.097Z,40.50
2023-02-17T14:08:30.520Z,39.47
2023-02-17T14:11:00.738Z,36.95
2023-02-17T14:13:30.672Z,36.70
2023-02-17T14:16:01.673Z,40.78
2023-02-17T14:18:30.570Z,45.25
2023-02-17T14:21:30.054Z,43.67
2023-02-17T14:24:01.007Z,35.25
2023-02-17T14:26:40.321Z,38.92
2023-02-17T14:29:12.263Z,33.60
2023-02-17T14:31:46.123Z,34.95
2023-02-17T14:34:31.177Z,40.13
2023-02-17T14:37:22.111Z,38.60
2023-02-17T14:39:51.341Z,33.03
2023-02-17T14:42:20.379Z,27.23
2023-02-17T14:44:49.417Z,28.65
2023-02-17T14:47:18.371Z,28.33
2023-02-17T14:49:47.259Z,33.10
2023-02-17T14:52:24.888Z,35.60
2023-02-17T14:54:54.177Z,28.10
2023-02-17T14:57:29.193Z,26.40
2023-02-17T14:59:58.877Z,28.48
2023-02-17T15:02:27.851Z,32.55
2023-02-17T15:04:56.919Z,35.40
2023-02-17T15:07:25.990Z,32.55
2023-02-17T15:09:54.977Z,28.25
2023-02-17T15:12:27.121Z,30.80
2023-02-17T15:14:57.236Z,32.33
2023-02-17T15:17:26.184Z,31.25
2023-02-17T15:19:55.175Z,27.77
2023-02-17T15:22:25.547Z,28.80
2023-02-17T15:24:54.513Z,30.25
2023-02-17T15:27:23.493Z,30.08
2023-02-17T15:29:52.379Z,28.65
2023-02-17T15:32:21.384Z,31.40
2023-02-17T15:34:50.422Z,29.55
2023-02-17T15:37:19.614Z,26.55
2023-02-17T15:39:48.564Z,33.47
2023-02-17T15:42:17.882Z,30.10
2023-02-17T15:44:50.345Z,29.48
2023-02-17T15:47:22.951Z,39.22
2023-02-17T15:49:51.866Z,29.50
2023-02-17T15:52:20.831Z,29.98
2023-02-17T15:54:52.197Z,31.75
2023-02-17T15:57:26.574Z,31.92
2023-02-17T15:59:56.308Z,31.85
2023-02-17T16:02:27.037Z,41.72
2023-02-17T16:04:55.953Z,32.33
2023-02-17T16:07:24.837Z,31.20
2023-02-17T16:09:53.834Z,30.25
2023-02-17T16:12:27.718Z,29.83
2023-02-17T16:14:58.288Z,32.50
2023-02-17T16:17:28.442Z,32.05
2023-02-17T16:19:57.449Z,27.27
2023-02-17T16:22:26.490Z,31.60
2023-02-17T16:24:55.401Z,28.05
2023-02-17T16:27:26.229Z,26.58
2023-02-17T16:29:55.403Z,27.83
2023-02-17T16:32:24.491Z,32.58
2023-02-17T16:34:53.544Z,28.88
2023-02-17T16:37:22.448Z,29.45
2023-02-17T16:39:51.421Z,26.77
2023-02-17T16:42:20.284Z,29.23
2023-02-17T16:44:50.013Z,32.28
2023-02-17T16:47:23.714Z,30.50
2023-02-17T16:49:53.111Z,25.75
2023-02-17T16:52:29.266Z,31.80
2023-02-17T16:54:58.178Z,30.42
2023-02-17T16:57:27.549Z,31.70
2023-02-17T16:59:57.426Z,31.65
2023-02-17T17:02:27.486Z,29.08
2023-02-17T17:04:56.503Z,31.10
2023-02-17T17:07:25.433Z,34.17
2023-02-17T17:10:15.157Z,37.80
2023-02-17T17:12:44.363Z,33.08
2023-02-17T17:15:13.764Z,36.65
2023-02-17T17:17:45.069Z,44.05
2023-02-17T17:20:21.786Z,35.95
2023-02-17T17:22:52.743Z,37.58
2023-02-17T17:25:21.826Z,41.08
2023-02-17T17:27:50.750Z,35.70
2023-02-17T17:30:23.301Z,37.03
2023-02-17T17:32:52.376Z,36.78
2023-02-17T17:35:22.143Z,39.03
2023-02-17T17:37:51.117Z,41.75
2023-02-17T17:40:26.822Z,45.17
2023-02-17T17:42:55.936Z,39.88
2023-02-17T17:45:25.892Z,42.22
2023-02-17T17:47:54.923Z,41.00
2023-02-17T17:50:26.082Z,42.80
2023-02-17T17:52:55.053Z,38.95
2023-02-17T17:55:24.021Z,43.30
2023-02-17T17:57:54.727Z,47.83
2023-02-17T18:00:23.804Z,44.40
2023-02-17T18:02:52.715Z,42.58
2023-02-17T18:05:21.705Z,39.83
2023-02-17T18:07:51.791Z,47.70
2023-02-17T18:10:20.964Z,47.33
2023-02-17T18:12:50.413Z,45.95
2023-02-17T18:15:19.738Z,44.30
2023-02-17T18:17:49.273Z,45.38
2023-02-17T18:20:18.534Z,50.45
2023-02-17T18:22:47.454Z,41.47
2023-02-17T18:25:16.380Z,45.90
2023-02-17T18:27:47.313Z,46.08
2023-02-17T18:30:19.836Z,40.95
2023-02-17T18:32:49.422Z,44.05
2023-02-17T18:35:19.204Z,50.40
2023-02-17T18:37:48.824Z,42.33
2023-02-17T18:40:19.636Z,46.95
2023-02-17T18:42:49.367Z,55.20
2023-02-17T18:45:18.978Z,45.53
2023-02-17T18:47:48.681Z,46.00
2023-02-17T18:50:17.963Z,52.10
2023-02-17T18:52:46.940Z,45.80
2023-02-17T18:55:16.476Z,48.92
2023-02-17T18:57:45.944Z,45.00
2023-02-17T19:00:17.744Z,46.78
2023-02-17T19:02:46.766Z,44.85
2023-02-17T19:05:16.005Z,50.45
2023-02-17T19:07:44.976Z,47.47
2023-02-17T19:10:14.263Z,48.97
2023-02-17T19:12:43.193Z,50.25
2023-02-17T19:15:12.230Z,45.65
2023-02-17T19:17:41.624Z,46.78
2023-02-17T19:20:11.126Z,47.50
2023-02-17T19:22:40.208Z,47.47
2023-02-17T19:25:09.722Z,43.88
2023-02-17T19:27:41.794Z,44.92
2023-02-17T19:30:12.489Z,45.38
2023-02-17T19:32:41.731Z,47.35
2023-02-17T19:35:11.746Z,47.60
2023-02-17T19:37:40.823Z,45.63
2023-02-17T19:40:10.231Z,50.65
2023-02-17T19:42:41.192Z,51.83
2023-02-17T19:45:10.348Z,56.55
2023-02-17T19:47:39.180Z,44.00
2023-02-17T19:50:08.767Z,49.78
2023-02-17T19:52:39.366Z,47.15
2023-02-17T19:55:09.470Z,52.95
2023-02-17T19:57:38.677Z,50.15
2023-02-17T20:00:09.040Z,49.95
2023-02-17T20:02:38.489Z,47.17
2023-02-17T20:05:07.692Z,48.70
2023-02-17T20:07:36.733Z,50.40
2023-02-17T20:10:10.116Z,52.05
2023-02-17T20:12:39.598Z,47.93
2023-02-17T20:15:09.193Z,45.72
2023-02-17T20:17:38.295Z,49.47
2023-02-17T20:20:08.806Z,46.45
2023-02-17T20:22:38.175Z,50.38
2023-02-17T20:25:08.075Z,46.95
2023-02-17T20:27:36.973Z,47.55
2023-02-17T20:30:06.345Z,50.25
2023-02-17T20:32:35.283Z,43.83
2023-02-17T20:35:04.257Z,39.75
2023-02-17T20:37:33.181Z,45.97
2023-02-17T20:40:04.445Z,43.50
2023-02-17T20:42:33.647Z,44.00
2023-02-17T20:45:02.867Z,46.22
2023-02-17T20:47:31.786Z,38.50
2023-02-17T20:50:00.697Z,38.05
2023-02-17T20:52:29.599Z,44.15
2023-02-17T20:54:58.460Z,45.55
2023-02-17T20:57:28.607Z,43.63
2023-02-17T20:59:57.513Z,40.50
2023-02-17T21:02:26.445Z,39.38
2023-02-17T21:04:55.422Z,41.95
2023-02-17T21:07:24.321Z,41.15
2023-02-17T21:09:53.386Z,38.42
2023-02-17T21:12:22.781Z,39.42
2023-02-17T21:14:51.709Z,41.28
2023-02-17T21:17:20.622Z,37.92
2023-02-17T21:19:49.578Z,40.13
2023-02-17T21:22:18.646Z,37.20
2023-02-17T21:24:47.657Z,45.70
2023-02-17T21:27:16.639Z,38.40
2023-02-17T21:29:45.556Z,38.58
2023-02-17T21:32:14.599Z,40.13
2023-02-17T21:34:43.468Z,36.70
2023-02-17T21:37:12.957Z,42.78
2023-02-17T21:39:41.857Z,39.85
2023-02-17T21:42:10.934Z,38.45
2023-02-17T21:44:54.893Z,38.10
2023-02-17T21:47:24.499Z,36.17
2023-02-17T21:49:55.589Z,37.28
2023-02-17T21:52:24.783Z,33.15
2023-02-17T21:54:53.673Z,38.88
2023-02-17T21:57:22.595Z,37.15
2023-02-17T21:59:51.567Z,38.70
2023-02-17T22:02:20.480Z,35.38
2023-02-17T22:04:49.452Z,38.97
2023-02-17T22:07:18.516Z,38.83
2023-02-17T22:09:47.516Z,37.47
2023-02-17T22:12:16.437Z,33.90
2023-02-17T22:14:45.400Z,35.83
2023-02-17T22:17:14.325Z,38.50
2023-02-17T22:19:43.197Z,33.67
2023-02-17T22:22:12.151Z,35.35
2023-02-17T22:24:41.012Z,34.45
2023-02-17T22:27:09.944Z,31.40
2023-02-17T22:29:38.861Z,36.90
2023-02-17T22:32:07.758Z,34.45
2023-02-17T22:34:36.662Z,33.55
2023-02-17T22:37:05.534Z,35.75
2023-02-17T22:39:34.655Z,36.50
2023-02-17T22:42:03.984Z,32.45
2023-02-17T22:44:33.585Z,36.17
2023-02-17T22:47:02.510Z,34.83
2023-02-17T22:49:31.372Z,34.03
2023-02-17T22:52:00.447Z,34.40
2023-02-17T22:54:29.669Z,36.45
2023-02-17T22:56:58.562Z,33.22
2023-02-17T22:59:27.515Z,33.65
2023-02-17T23:01:59.291Z,33.17
2023-02-17T23:04:28.534Z,32.55
2023-02-17T23:06:57.705Z,39.15
2023-02-17T23:09:26.582Z,31.27
2023-02-17T23:11:55.598Z,33.97
2023-02-17T23:14:30.666Z,34.45
2023-02-17T23:17:03.273Z,37.15
2023-02-17T23:19:33.422Z,37.72
2023-02-17T23:22:06.698Z,33.80
2023-02-17T23:24:35.997Z,36.42
2023-02-17T23:27:05.405Z,38.08
2023-02-17T23:29:34.771Z,39.08
2023-02-17T23:32:03.697Z,37.35
2023-02-17T23:34:32.755Z,37.70
2023-02-17T23:37:01.847Z,35.67
2023-02-17T23:39:30.789Z,42.55
2023-02-17T23:41:59.742Z,37.42
2023-02-17T23:44:28.630Z,41.97
2023-02-17T23:46:57.556Z,45.47
2023-02-17T23:49:26.471Z,42.10
2023-02-17T23:51:55.455Z,48.15
2023-02-17T23:54:26.207Z,45.63
2023-02-17T23:56:55.046Z,42.65
2023-02-17T23:59:23.983Z,38.45
